createdAt,value
2023-06-05T00:00:48.583Z,2.72
2023-06-05T00:03:15.156Z,2.43
2023-06-05T00:05:41.952Z,2.70
2023-06-05T00:08:10.176Z,2.42
2023-06-05T00:10:36.615Z,2.58
2023-06-05T00:13:03.132Z,2.40
2023-06-05T00:15:29.777Z,2.50
2023-06-05T00:17:56.436Z,2.55
2023-06-05T00:20:22.968Z,2.92
2023-06-05T00:22:49.967Z,2.42
2023-06-05T00:25:16.588Z,2.63
2023-06-05T00:27:43.128Z,2.50
2023-06-05T00:30:10.983Z,3.05
2023-06-05T00:32:37.889Z,2.90
2023-06-05T00:35:04.827Z,2.97
2023-06-05T00:37:31.359Z,2.72
2023-06-05T00:39:57.822Z,2.90
2023-06-05T00:42:24.215Z,3.08
2023-06-05T00:44:50.601Z,2.60
2023-06-05T00:47:17.082Z,2.90
2023-06-05T00:49:44.029Z,3.17
2023-06-05T00:52:11.196Z,2.93
2023-06-05T00:54:37.969Z,2.75
2023-06-05T00:57:04.871Z,3.10
2023-06-05T00:59:33.171Z,3.20
2023-06-05T01:02:00.439Z,3.25
2023-06-05T01:04:28.172Z,3.20
2023-06-05T01:06:54.621Z,3.25
2023-06-05T01:09:21.112Z,3.20
2023-06-05T01:11:50.438Z,3.13
2023-06-05T01:14:21.536Z,3.65
2023-06-05T01:16:52.094Z,2.90
2023-06-05T01:19:18.719Z,3.65
2023-06-05T01:21:45.197Z,3.28
2023-06-05T01:24:14.345Z,3.40
2023-06-05T01:27:02.345Z,3.42
2023-06-05T01:29:37.202Z,3.53
2023-06-05T01:32:12.733Z,3.33
2023-06-05T01:34:44.876Z,4.07
2023-06-05T01:37:15.393Z,3.53
2023-06-05T01:39:44.616Z,3.72
2023-06-05T01:42:12.292Z,3.50
2023-06-05T01:44:39.628Z,2.88
2023-06-05T01:47:06.813Z,3.85
2023-06-05T01:49:33.277Z,3.40
2023-06-05T01:51:59.704Z,3.75
2023-06-05T01:54:27.386Z,3.30
2023-06-05T01:56:56.665Z,3.75
2023-06-05T01:59:23.277Z,3.45
2023-06-05T02:01:50.151Z,3.75
2023-06-05T02:04:20.029Z,3.70
2023-06-05T02:06:46.768Z,3.80
2023-06-05T02:09:13.885Z,3.30
2023-06-05T02:11:43.452Z,3.58
2023-06-05T02:14:13.394Z,3.72
2023-06-05T02:16:41.933Z,4.20
2023-06-05T02:19:08.844Z,3.60
2023-06-05T02:21:36.358Z,3.33
2023-06-05T02:24:06.319Z,3.53
2023-06-05T02:26:32.818Z,3.38
2023-06-05T02:28:59.460Z,3.15
2023-06-05T02:31:26.965Z,3.23
2023-06-05T02:33:55.100Z,3.60
2023-06-05T02:36:22.127Z,3.30
2023-06-05T02:38:52.016Z,4.03
2023-06-05T02:41:19.089Z,3.58
2023-06-05T02:43:46.050Z,3.90
2023-06-05T02:46:12.949Z,4.30
2023-06-05T02:48:39.447Z,4.10
2023-06-05T02:51:07.761Z,3.95
2023-06-05T02:53:34.469Z,4.13
2023-06-05T02:56:02.735Z,3.47
2023-06-05T02:58:29.681Z,4.10
2023-06-05T03:01:03.025Z,4.55
2023-06-05T03:03:33.333Z,3.75
2023-06-05T03:06:05.231Z,3.83
2023-06-05T03:08:33.906Z,3.90
2023-06-05T03:11:05.025Z,3.70
2023-06-05T03:13:33.368Z,3.90
2023-06-05T03:16:02.102Z,3.83
2023-06-05T03:18:29.555Z,3.75
2023-06-05T03:20:57.139Z,4.00
2023-06-05T03:23:28.803Z,3.50
2023-06-05T03:25:55.793Z,3.67
2023-06-05T03:28:24.101Z,4.22
2023-06-05T03:30:50.793Z,3.90
2023-06-05T03:33:18.620Z,3.97
2023-06-05T03:35:48.177Z,4.30
2023-06-05T03:38:15.126Z,4.07
2023-06-05T03:40:42.419Z,4.18
2023-06-05T03:43:09.062Z,4.43
2023-06-05T03:45:36.887Z,3.77
2023-06-05T03:48:03.843Z,4.28
2023-06-05T03:50:31.598Z,3.88
2023-06-05T03:53:03.410Z,4.03
2023-06-05T03:55:45.263Z,4.35
2023-06-05T03:58:15.685Z,4.27
2023-06-05T04:00:46.077Z,4.78
2023-06-05T04:03:13.569Z,4.78
2023-06-05T04:05:40.994Z,3.92
2023-06-05T04:08:10.326Z,3.80
2023-06-05T04:10:37.427Z,4.07
2023-06-05T04:13:07.166Z,4.93
2023-06-05T04:15:34.728Z,4.63
2023-06-05T04:18:01.209Z,4.80
2023-06-05T04:20:27.782Z,4.85
2023-06-05T04:22:54.231Z,4.47
2023-06-05T04:25:20.757Z,4.35
2023-06-05T04:27:51.344Z,4.30
2023-06-05T04:30:18.465Z,4.70
2023-06-05T04:32:55.462Z,4.40
2023-06-05T04:35:23.047Z,3.97
2023-06-05T04:37:51.252Z,4.45
2023-06-05T04:40:19.176Z,4.38
2023-06-05T04:42:45.871Z,3.95
2023-06-05T04:45:12.287Z,4.50
2023-06-05T04:47:38.862Z,4.67
2023-06-05T04:50:06.556Z,4.80
2023-06-05T04:52:34.152Z,4.88
2023-06-05T04:55:02.471Z,4.40
2023-06-05T04:57:30.158Z,4.57
2023-06-05T05:00:00.197Z,4.77
2023-06-05T05:02:27.399Z,5.13
2023-06-05T05:04:53.896Z,4.68
2023-06-05T05:07:20.381Z,4.45
2023-06-05T05:09:47.184Z,4.50
2023-06-05T05:12:13.593Z,4.87
2023-06-05T05:14:41.237Z,5.10
2023-06-05T05:17:07.776Z,5.00
2023-06-05T05:19:34.323Z,4.68
2023-06-05T05:22:00.774Z,4.47
2023-06-05T05:24:27.238Z,4.93
2023-06-05T05:26:53.878Z,4.60
2023-06-05T05:29:20.468Z,5.05
2023-06-05T05:31:47.036Z,4.68
2023-06-05T05:34:13.609Z,4.93
2023-06-05T05:36:39.983Z,4.30
2023-06-05T05:39:08.227Z,4.38
2023-06-05T05:41:36.107Z,5.07
2023-06-05T05:44:02.571Z,5.13
2023-06-05T05:46:28.963Z,4.32
2023-06-05T05:48:56.049Z,4.87
2023-06-05T05:51:22.616Z,4.47
2023-06-05T05:53:49.026Z,4.55
2023-06-05T05:56:15.700Z,4.80
2023-06-05T05:58:42.177Z,4.57
2023-06-05T06:01:08.831Z,4.50
2023-06-05T06:03:38.174Z,4.68
2023-06-05T06:06:08.113Z,5.32
2023-06-05T06:08:36.121Z,4.97
2023-06-05T06:11:05.227Z,4.95
2023-06-05T06:13:31.758Z,4.93
2023-06-05T06:15:58.212Z,4.75
2023-06-05T06:18:24.750Z,4.85
2023-06-05T06:20:51.163Z,5.35
2023-06-05T06:23:17.769Z,4.55
2023-06-05T06:25:44.802Z,4.43
2023-06-05T06:28:11.289Z,5.03
2023-06-05T06:30:37.781Z,4.85
2023-06-05T06:33:05.271Z,5.18
2023-06-05T06:35:35.904Z,4.90
2023-06-05T06:38:02.454Z,4.57
2023-06-05T06:40:30.252Z,5.10
2023-06-05T06:42:56.941Z,4.95
2023-06-05T06:45:23.607Z,4.32
2023-06-05T06:48:05.840Z,4.25
2023-06-05T06:50:33.754Z,4.87
2023-06-05T06:53:00.229Z,4.78
2023-06-05T06:55:26.892Z,4.90
2023-06-05T06:57:53.527Z,5.20
2023-06-05T07:00:21.476Z,4.68
2023-06-05T07:02:48.471Z,4.87
2023-06-05T07:05:15.717Z,4.70
2023-06-05T07:07:42.446Z,4.55
2023-06-05T07:10:09.484Z,4.38
2023-06-05T07:12:35.936Z,3.97
2023-06-05T07:15:02.557Z,4.13
2023-06-05T07:17:31.136Z,4.50
2023-06-05T07:19:58.573Z,4.05
2023-06-05T07:22:30.396Z,4.57
2023-06-05T07:24:56.913Z,4.30
2023-06-05T07:27:23.957Z,3.70
2023-06-05T07:29:51.297Z,4.72
2023-06-05T07:32:19.314Z,4.15
2023-06-05T07:34:46.206Z,4.32
2023-06-05T07:37:12.653Z,4.63
2023-06-05T07:39:39.130Z,4.53
2023-06-05T07:42:06.860Z,4.25
2023-06-05T07:44:33.334Z,4.53
2023-06-05T07:46:59.798Z,4.38
2023-06-05T07:49:26.326Z,4.00
2023-06-05T07:51:52.739Z,5.20
2023-06-05T07:54:20.467Z,4.80
2023-06-05T07:56:50.099Z,4.90
2023-06-05T07:59:17.758Z,4.85
2023-06-05T08:01:44.594Z,4.82
2023-06-05T08:04:14.258Z,4.90
2023-06-05T08:06:41.392Z,4.97
2023-06-05T08:09:12.123Z,4.38
2023-06-05T08:11:44.880Z,4.45
2023-06-05T08:14:11.387Z,4.28
2023-06-05T08:16:37.967Z,5.40
2023-06-05T08:19:05.114Z,4.60
2023-06-05T08:21:32.029Z,4.40
2023-06-05T08:23:58.865Z,4.10
2023-06-05T08:26:26.923Z,4.38
2023-06-05T08:28:53.583Z,4.13
2023-06-05T08:31:20.304Z,4.80
2023-06-05T08:33:46.908Z,4.90
2023-06-05T08:36:13.554Z,4.03
2023-06-05T08:38:42.112Z,4.40
2023-06-05T08:41:11.764Z,4.43
2023-06-05T08:43:39.790Z,4.95
2023-06-05T08:46:09.009Z,5.20
2023-06-05T08:48:43.162Z,4.60
2023-06-05T08:51:14.697Z,4.55
2023-06-05T08:53:45.368Z,4.30
2023-06-05T08:56:12.315Z,4.50
2023-06-05T08:58:39.148Z,5.43
2023-06-05T09:01:05.899Z,4.63
2023-06-05T09:03:34.366Z,4.35
2023-06-05T09:06:01.994Z,4.33
2023-06-05T09:08:33.878Z,4.25
2023-06-05T09:11:22.849Z,4.22
2023-06-05T09:13:49.598Z,4.30
2023-06-05T09:16:20.206Z,4.40
2023-06-05T09:18:58.015Z,4.33
2023-06-05T09:21:33.496Z,4.32
2023-06-05T09:24:15.222Z,4.15
2023-06-05T09:27:01.688Z,4.30
2023-06-05T09:29:33.471Z,4.28
2023-06-05T09:32:05.102Z,4.10
2023-06-05T09:34:34.293Z,4.50
2023-06-05T09:37:02.684Z,3.92
2023-06-05T09:39:30.877Z,3.92
2023-06-05T09:41:58.618Z,3.83
2023-06-05T09:44:26.464Z,3.67
2023-06-05T09:46:57.068Z,3.75
2023-06-05T09:49:30.242Z,3.28
2023-06-05T09:51:58.938Z,3.67
2023-06-05T09:54:30.938Z,3.30
2023-06-05T09:57:04.084Z,3.80
2023-06-05T09:59:33.384Z,3.55
2023-06-05T10:02:07.839Z,3.70
2023-06-05T10:04:47.221Z,3.60
2023-06-05T10:07:14.600Z,3.97
2023-06-05T10:09:42.455Z,3.43
2023-06-05T10:12:10.112Z,3.60
2023-06-05T10:14:37.712Z,4.25
2023-06-05T10:17:04.492Z,3.47
2023-06-05T10:19:31.211Z,3.47
2023-06-05T10:21:57.762Z,2.83
2023-06-05T10:24:35.986Z,3.47
2023-06-05T10:27:37.031Z,3.90
2023-06-05T10:30:21.835Z,3.63
2023-06-05T10:33:21.748Z,3.60
2023-06-05T10:35:54.170Z,3.57
2023-06-05T10:38:27.124Z,3.90
2023-06-05T10:40:55.728Z,3.25
2023-06-05T10:43:34.133Z,3.13
2023-06-05T10:49:10.489Z,3.10
2023-06-05T10:51:42.038Z,3.10
2023-06-05T10:54:09.537Z,2.85
2023-06-05T10:57:06.701Z,3.05
2023-06-05T10:59:35.465Z,3.13
2023-06-05T11:02:17.747Z,2.83
2023-06-05T11:04:47.711Z,2.92
2023-06-05T11:07:18.995Z,2.75
2023-06-05T11:10:21.682Z,2.38
2023-06-05T11:12:48.413Z,3.17
2023-06-05T11:15:24.216Z,3.07
2023-06-05T11:17:51.398Z,2.72
2023-06-05T11:20:23.918Z,2.83
2023-06-05T11:22:53.405Z,2.40
2023-06-05T11:25:22.201Z,2.83
2023-06-05T11:27:51.106Z,2.73
2023-06-05T11:30:35.000Z,2.60
2023-06-05T11:33:13.682Z,2.22
2023-06-05T11:35:42.561Z,2.65
2023-06-05T11:38:10.930Z,2.85
2023-06-05T11:40:38.238Z,2.60
2023-06-05T11:43:06.306Z,2.70
2023-06-05T11:45:42.049Z,2.80
2023-06-05T11:48:12.373Z,2.72
2023-06-05T11:50:41.490Z,3.20
2023-06-05T11:53:12.622Z,3.23
2023-06-05T11:55:56.092Z,2.67
2023-06-05T11:58:23.325Z,3.10
2023-06-05T12:00:50.576Z,3.00
2023-06-05T12:03:23.354Z,2.53
2023-06-05T12:05:50.608Z,2.73
2023-06-05T12:08:28.704Z,2.90
2023-06-05T12:10:57.555Z,3.00
2023-06-05T12:13:24.019Z,2.63
2023-06-05T12:16:00.320Z,3.03
2023-06-05T12:18:35.763Z,3.30
2023-06-05T12:21:02.828Z,2.90
2023-06-05T12:23:33.761Z,2.80
2023-06-05T12:26:04.932Z,3.08
2023-06-05T12:28:32.442Z,3.20
2023-06-05T12:30:59.514Z,3.40
2023-06-05T12:33:26.086Z,2.88
2023-06-05T12:36:11.612Z,3.30
2023-06-05T12:38:39.675Z,3.25
2023-06-05T12:41:09.193Z,3.20
2023-06-05T12:43:36.625Z,3.37
2023-06-05T12:46:03.542Z,3.28
2023-06-05T12:48:30.170Z,3.25
2023-06-05T12:50:57.610Z,3.00
2023-06-05T12:53:24.234Z,3.33
2023-06-05T12:55:51.099Z,3.17
2023-06-05T12:58:17.971Z,3.42
2023-06-05T13:00:45.351Z,3.30
2023-06-05T13:03:13.510Z,3.35
2023-06-05T13:05:40.506Z,3.28
2023-06-05T13:08:07.392Z,3.00
2023-06-05T13:10:33.834Z,3.25
2023-06-05T13:13:00.436Z,2.85
2023-06-05T13:15:26.943Z,3.40
2023-06-05T13:17:53.426Z,3.42
2023-06-05T13:20:19.939Z,3.00
2023-06-05T13:22:46.434Z,3.22
2023-06-05T13:25:14.024Z,3.30
2023-06-05T13:27:41.106Z,3.40
2023-06-05T13:30:08.351Z,3.05
2023-06-05T13:32:35.761Z,3.53
2023-06-05T13:35:02.320Z,2.95
2023-06-05T13:37:29.160Z,3.13
2023-06-05T13:39:55.745Z,3.22
2023-06-05T13:42:22.175Z,3.50
2023-06-05T13:44:48.613Z,3.43
2023-06-05T13:47:15.120Z,3.63
2023-06-05T13:49:42.731Z,3.45
2023-06-05T13:52:09.205Z,3.65
2023-06-05T13:54:35.628Z,3.67
2023-06-05T13:57:02.221Z,3.47
2023-06-05T13:59:28.672Z,3.20
2023-06-05T14:01:55.150Z,3.90
2023-06-05T14:04:22.012Z,3.75
2023-06-05T14:06:48.505Z,3.70
2023-06-05T14:09:14.984Z,3.10
2023-06-05T14:11:45.672Z,3.13
2023-06-05T14:14:12.837Z,3.30
2023-06-05T14:16:39.572Z,3.80
2023-06-05T14:19:06.302Z,3.40
2023-06-05T14:21:32.748Z,3.67
2023-06-05T14:23:59.221Z,4.15
2023-06-05T14:26:26.652Z,4.05
2023-06-05T14:28:53.132Z,3.35
2023-06-05T14:31:19.725Z,3.50
2023-06-05T14:33:47.759Z,3.73
2023-06-05T14:36:16.302Z,4.10
2023-06-05T14:38:42.783Z,3.22
2023-06-05T14:41:09.338Z,3.20
2023-06-05T14:43:36.299Z,3.30
2023-06-05T14:46:03.398Z,3.30
2023-06-05T14:48:30.630Z,3.55
2023-06-05T14:50:57.152Z,3.33
2023-06-05T14:53:25.924Z,3.50
2023-06-05T14:55:52.394Z,3.65
2023-06-05T14:58:18.876Z,4.20
2023-06-05T15:00:46.966Z,3.60
2023-06-05T15:03:13.636Z,3.05
2023-06-05T15:05:40.277Z,3.33
2023-06-05T15:08:07.291Z,3.97
2023-06-05T15:10:33.793Z,3.60
2023-06-05T15:13:00.336Z,3.60
2023-06-05T15:15:27.064Z,3.63
2023-06-05T15:17:53.661Z,3.63
2023-06-05T15:20:23.980Z,3.47
2023-06-05T15:23:00.458Z,3.23
2023-06-05T15:25:36.018Z,3.10
2023-06-05T15:28:03.238Z,3.85
2023-06-05T15:30:29.741Z,3.60
2023-06-05T15:32:56.360Z,3.50
2023-06-05T15:35:22.852Z,3.57
2023-06-05T15:37:49.393Z,3.50
2023-06-05T15:40:16.117Z,3.53
2023-06-05T15:42:44.426Z,3.35
2023-06-05T15:45:14.133Z,3.60
2023-06-05T15:47:41.187Z,3.40
2023-06-05T15:50:08.819Z,3.20
2023-06-05T15:52:36.748Z,3.75
2023-06-05T15:55:03.970Z,3.58
2023-06-05T15:57:30.509Z,3.60
2023-06-05T15:59:57.570Z,3.23
2023-06-05T16:02:24.216Z,3.22
2023-06-05T16:04:50.930Z,3.25
2023-06-05T16:07:17.432Z,3.40
2023-06-05T16:09:44.490Z,3.80
2023-06-05T16:12:11.960Z,3.53
2023-06-05T16:14:38.445Z,3.63
2023-06-05T16:17:08.178Z,4.00
2023-06-05T16:19:34.641Z,3.80
2023-06-05T16:22:01.120Z,3.53
2023-06-05T16:24:27.695Z,3.57
2023-06-05T16:26:54.237Z,3.78
2023-06-05T16:29:21.493Z,4.10
2023-06-05T16:31:49.067Z,3.53
2023-06-05T16:34:15.758Z,4.05
2023-06-05T16:36:42.479Z,3.80
2023-06-05T16:39:11.141Z,3.45
2023-06-05T16:41:38.297Z,3.90
2023-06-05T16:44:04.870Z,3.80
2023-06-05T16:46:31.856Z,4.15
2023-06-05T16:48:58.540Z,4.40
2023-06-05T16:51:25.087Z,4.28
2023-06-05T16:53:52.239Z,4.43
2023-06-05T16:56:18.882Z,3.90
2023-06-05T16:58:45.488Z,3.95
2023-06-05T17:01:12.414Z,4.57
2023-06-05T17:03:39.600Z,4.35
2023-06-05T17:06:06.871Z,4.47
2023-06-05T17:08:34.366Z,4.28
2023-06-05T17:11:00.994Z,4.60
2023-06-05T17:13:27.505Z,4.30
2023-06-05T17:15:54.001Z,4.18
2023-06-05T17:18:20.688Z,4.57
2023-06-05T17:20:47.181Z,4.10
2023-06-05T17:23:13.768Z,3.80
2023-06-05T17:25:40.355Z,4.10
2023-06-05T17:28:07.540Z,3.65
2023-06-05T17:30:34.021Z,3.80
2023-06-05T17:33:00.702Z,4.32
2023-06-05T17:35:27.317Z,4.30
2023-06-05T17:37:53.800Z,4.30
2023-06-05T17:40:20.278Z,3.97
2023-06-05T17:42:46.753Z,4.40
2023-06-05T17:45:13.207Z,4.60
2023-06-05T17:47:39.864Z,4.13
2023-06-05T17:50:07.318Z,4.97
2023-06-05T17:52:33.869Z,4.30
2023-06-05T17:55:00.375Z,4.50
2023-06-05T17:57:26.937Z,5.03
2023-06-05T17:59:53.659Z,4.90
2023-06-05T18:02:20.514Z,4.40
2023-06-05T18:04:47.122Z,4.45
2023-06-05T18:07:13.824Z,4.70
2023-06-05T18:09:40.330Z,4.13
2023-06-05T18:12:08.313Z,4.45
2023-06-05T18:14:34.855Z,4.10
2023-06-05T18:17:01.427Z,4.57
2023-06-05T18:19:27.987Z,4.15
2023-06-05T18:21:55.078Z,4.03
2023-06-05T18:24:21.524Z,4.28
2023-06-05T18:26:48.064Z,4.40
2023-06-05T18:29:14.602Z,4.70
2023-06-05T18:31:42.481Z,4.28
2023-06-05T18:34:09.008Z,4.20
2023-06-05T18:36:35.774Z,4.38
2023-06-05T18:39:02.169Z,4.57
2023-06-05T18:41:28.617Z,4.47
2023-06-05T18:43:55.000Z,4.72
2023-06-05T18:46:21.393Z,3.97
2023-06-05T18:48:47.903Z,4.47
2023-06-05T18:51:14.436Z,4.73
2023-06-05T18:53:42.137Z,4.28
2023-06-05T18:56:08.575Z,4.85
2023-06-05T18:58:35.721Z,4.40
2023-06-05T19:01:02.165Z,4.43
2023-06-05T19:03:28.646Z,4.37
2023-06-05T19:05:55.215Z,4.22
2023-06-05T19:08:21.731Z,4.63
2023-06-05T19:10:48.234Z,4.60
2023-06-05T19:13:14.660Z,4.28
2023-06-05T19:15:41.724Z,4.50
2023-06-05T19:18:08.287Z,4.40
2023-06-05T19:20:35.473Z,4.10
2023-06-05T19:23:01.986Z,3.85
2023-06-05T19:25:28.428Z,3.95
2023-06-05T19:27:54.912Z,4.43
2023-06-05T19:30:21.371Z,4.22
2023-06-05T19:32:48.158Z,3.90
2023-06-05T19:35:14.860Z,3.88
2023-06-05T19:37:43.586Z,4.68
2023-06-05T19:40:10.284Z,4.27
2023-06-05T19:42:36.776Z,4.07
2023-06-05T19:45:03.410Z,4.20
2023-06-05T19:47:29.947Z,3.65
2023-06-05T19:49:56.414Z,3.85
2023-06-05T19:52:23.830Z,3.40
2023-06-05T19:54:50.561Z,3.95
2023-06-05T19:57:17.008Z,3.88
2023-06-05T19:59:45.278Z,4.07
2023-06-05T20:02:13.741Z,3.90
2023-06-05T20:04:40.456Z,4.23
2023-06-05T20:07:07.036Z,4.13
2023-06-05T20:09:33.514Z,3.75
2023-06-05T20:12:00.006Z,4.85
2023-06-05T20:14:26.574Z,4.38
2023-06-05T20:16:53.266Z,3.83
2023-06-05T20:19:19.717Z,4.18
2023-06-05T20:21:46.556Z,4.20
2023-06-05T20:24:12.993Z,4.38
2023-06-05T20:26:39.521Z,4.00
2023-06-05T20:29:10.580Z,3.93
2023-06-05T20:31:37.478Z,3.85
2023-06-05T20:34:04.437Z,3.97
2023-06-05T20:36:35.240Z,4.32
2023-06-05T20:39:02.106Z,3.90
2023-06-05T20:41:29.388Z,4.10
2023-06-05T20:43:56.126Z,4.10
2023-06-05T20:46:23.321Z,3.88
2023-06-05T20:48:53.299Z,4.75
2023-06-05T20:51:22.054Z,3.88
2023-06-05T20:53:49.763Z,3.77
2023-06-05T20:56:36.596Z,4.00
2023-06-05T20:59:03.001Z,3.92
2023-06-05T21:01:30.609Z,4.07
2023-06-05T21:03:57.178Z,4.55
2023-06-05T21:06:24.876Z,3.80
2023-06-05T21:08:51.405Z,4.55
2023-06-05T21:11:18.023Z,4.10
2023-06-05T21:13:44.407Z,3.83
2023-06-05T21:16:10.946Z,4.40
2023-06-05T21:18:37.440Z,3.83
2023-06-05T21:21:04.032Z,3.70
2023-06-05T21:23:30.734Z,4.07
2023-06-05T21:25:57.249Z,3.38
2023-06-05T21:28:24.024Z,3.75
2023-06-05T21:30:55.423Z,4.20
2023-06-05T21:33:21.960Z,3.80
2023-06-05T21:35:48.429Z,4.45
2023-06-05T21:38:14.820Z,3.33
2023-06-05T21:40:41.257Z,3.35
2023-06-05T21:43:07.973Z,3.47
2023-06-05T21:45:34.529Z,3.55
2023-06-05T21:48:01.025Z,3.85
2023-06-05T21:50:27.588Z,3.35
2023-06-05T21:52:54.038Z,3.03
2023-06-05T21:55:20.547Z,3.60
2023-06-05T21:57:47.022Z,3.47
2023-06-05T22:00:15.110Z,3.63
2023-06-05T22:02:41.806Z,3.30
2023-06-05T22:05:08.810Z,3.38
2023-06-05T22:07:39.608Z,3.17
2023-06-05T22:10:07.060Z,3.42
2023-06-05T22:12:35.247Z,3.08
2023-06-05T22:15:05.458Z,3.50
2023-06-05T22:17:33.010Z,3.58
2023-06-05T22:20:04.405Z,3.10
2023-06-05T22:22:30.830Z,3.42
2023-06-05T22:24:58.220Z,3.38
2023-06-05T22:27:25.154Z,3.30
2023-06-05T22:29:52.396Z,3.60
2023-06-05T22:32:21.809Z,2.72
2023-06-05T22:34:50.570Z,3.90
2023-06-05T22:37:17.850Z,3.70
2023-06-05T22:39:44.318Z,3.50
2023-06-05T22:42:11.004Z,4.03
2023-06-05T22:44:37.499Z,3.13
2023-06-05T22:47:04.305Z,3.10
2023-06-05T22:49:30.853Z,3.47
2023-06-05T22:51:58.136Z,3.20
2023-06-05T22:54:24.725Z,3.97
2023-06-05T22:56:51.882Z,3.67
2023-06-05T22:59:18.480Z,3.35
2023-06-05T23:01:47.242Z,3.23
2023-06-05T23:04:14.209Z,3.50
2023-06-05T23:06:42.238Z,3.55
2023-06-05T23:09:09.465Z,3.67
2023-06-05T23:11:35.991Z,3.40
2023-06-05T23:14:02.566Z,3.97
2023-06-05T23:16:29.109Z,4.13
2023-06-05T23:18:55.638Z,4.28
2023-06-05T23:21:22.051Z,3.47
2023-06-05T23:23:48.519Z,3.80
2023-06-05T23:26:15.284Z,3.20
2023-06-05T23:28:41.682Z,3.75
2023-06-05T23:31:08.295Z,3.50
2023-06-05T23:33:34.904Z,3.65
2023-06-05T23:36:01.435Z,4.00
2023-06-05T23:38:27.940Z,3.97
2023-06-05T23:40:54.401Z,3.67
2023-06-05T23:43:20.901Z,3.60
2023-06-05T23:45:47.374Z,3.80
2023-06-05T23:48:13.841Z,3.92
2023-06-05T23:50:40.523Z,4.13
2023-06-05T23:53:07.056Z,4.03
2023-06-05T23:55:33.942Z,3.85
2023-06-05T23:58:00.533Z,3.53
